Time;durP1;ratioP1;P1;durP2;ratioP2;P2;SDS_P1;SDS_P2;PMS_P1;PMS_P2;Temp;Humidity;BMP_temperature;BMP_pressure;BME280_temperature;BME280_humidity;BME280_pressure;Samples;Min_cycle;Max_cycle;Signal;HPM_P1;HPM_P2
2022/09/23 00:01:08;;;;;;;13.57;9.20;;;9.90;76.70;;;;;;5094558;28;20024;-14
2022/09/23 00:03:36;;;;;;;16.10;10.48;;;9.80;76.50;;;;;;5094777;28;20030;-14
2022/09/23 00:06:05;;;;;;;12.25;8.80;;;9.80;76.60;;;;;;5094278;28;20077;-14
2022/09/23 00:08:31;;;;;;;11.20;8.07;;;9.80;76.80;;;;;;5094438;28;20360;-14
2022/09/23 00:11:07;;;;;;;9.27;6.60;;;9.70;76.00;;;;;;5094367;28;20054;-13
2022/09/23 00:13:35;;;;;;;9.77;6.97;;;9.70;75.90;;;;;;5094267;28;20537;-12
2022/09/23 00:16:07;;;;;;;10.88;8.15;;;9.70;75.70;;;;;;5094179;28;20052;-12
2022/09/23 00:18:33;;;;;;;12.93;9.10;;;9.70;76.50;;;;;;5094128;28;20034;-12
2022/09/23 00:21:04;;;;;;;9.18;6.78;;;9.70;76.70;;;;;;5092560;28;20074;-12
2022/09/23 00:23:30;;;;;;;9.60;7.10;;;9.60;76.70;;;;;;5094410;28;20066;-12
2022/09/23 00:25:58;;;;;;;10.88;7.10;;;9.50;76.70;;;;;;5094007;28;20038;-12
2022/09/23 00:28:24;;;;;;;13.50;8.70;;;9.50;76.50;;;;;;5094046;28;20024;-12
2022/09/23 00:30:50;;;;;;;15.18;10.25;;;9.50;76.70;;;;;;5093634;28;20028;-12
2022/09/23 00:33:16;;;;;;;15.63;10.95;;;9.40;77.00;;;;;;5094388;28;20084;-12
2022/09/23 00:35:42;;;;;;;13.98;10.68;;;9.40;77.30;;;;;;5093738;28;20039;-12
2022/09/23 00:38:08;;;;;;;14.02;10.57;;;9.40;77.30;;;;;;5094333;28;20020;-13
2022/09/23 00:40:37;;;;;;;14.82;11.25;;;9.40;77.30;;;;;;5094010;28;20036;-13
2022/09/23 00:43:04;;;;;;;13.05;9.07;;;9.30;77.10;;;;;;5093502;28;20512;-13
2022/09/23 00:45:31;;;;;;;10.85;7.40;;;9.40;77.20;;;;;;5093965;28;20053;-13
2022/09/23 00:48:01;;;;;;;8.35;6.32;;;9.30;77.20;;;;;;5093210;28;20034;-13
2022/09/23 00:50:33;;;;;;;10.60;7.03;;;9.40;76.90;;;;;;5093796;28;20029;-14
2022/09/23 00:53:04;;;;;;;10.00;5.95;;;9.40;77.20;;;;;;5093402;28;20028;-13
2022/09/23 00:55:51;;;;;;;10.38;7.63;;;9.40;76.90;;;;;;5094664;28;20028;-13
2022/09/23 00:58:25;;;;;;;9.35;6.63;;;9.40;76.90;;;;;;5093430;28;20444;-13
2022/09/23 01:00:52;;;;;;;11.10;6.90;;;9.40;76.90;;;;;;5093885;28;20537;-13
2022/09/23 01:03:19;;;;;;;16.92;10.93;;;9.40;77.00;;;;;;5093760;28;20032;-14
2022/09/23 01:05:45;;;;;;;9.27;6.60;;;9.40;76.70;;;;;;5093602;28;20024;-14
2022/09/23 01:08:13;;;;;;;11.68;8.80;;;9.50;77.10;;;;;;5093691;28;20016;-13
2022/09/23 01:11:04;;;;;;;11.65;7.68;;;9.50;77.30;;;;;;5093563;28;20028;-14
2022/09/23 01:13:49;;;;;;;11.25;7.90;;;9.50;78.70;;;;;;5093358;28;20028;-14
2022/09/23 01:16:20;;;;;;;;;;;9.50;77.90;;;;;;5093672;28;20056;-13
2022/09/23 01:18:58;;;;;;;12.10;8.18;;;9.50;79.00;;;;;;5093429;28;19969;-12
2022/09/23 01:21:33;;;;;;;8.95;6.22;;;9.50;78.00;;;;;;5093512;28;20054;-14
2022/09/23 01:24:04;;;;;;;10.10;7.38;;;9.60;77.10;;;;;;5093179;28;20031;-13
2022/09/23 01:26:49;;;;;;;8.63;6.43;;;9.60;77.20;;;;;;5093421;28;20483;-14
2022/09/23 01:29:52;;;;;;;10.00;7.30;;;9.70;76.80;;;;;;5093493;28;20059;-14
2022/09/23 01:32:21;;;;;;;11.95;8.93;;;9.70;77.10;;;;;;5071162;28;20043;-13
2022/09/23 01:34:54;;;;;;;11.93;7.60;;;9.70;77.10;;;;;;5091570;28;20028;-13
2022/09/23 01:38:01;;;;;;;14.00;9.38;;;9.80;77.00;;;;;;5093346;28;20032;-12
2022/09/23 01:40:30;;;;;;;15.55;11.73;;;9.80;77.40;;;;;;5093363;28;20054;-12
2022/09/23 01:43:10;;;;;;;19.10;12.40;;;9.90;78.10;;;;;;5092792;28;20032;-12
2022/09/23 01:45:46;;;;;;;14.02;10.00;;;9.90;77.30;;;;;;5093619;28;20086;-12
2022/09/23 01:48:22;;;;;;;15.43;10.98;;;9.90;77.10;;;;;;5093297;28;20089;-12
2022/09/23 01:51:03;;;;;;;11.40;8.38;;;10.00;77.80;;;;;;5092641;28;20035;-13
2022/09/23 01:53:33;;;;;;;8.55;6.18;;;10.10;77.50;;;;;;5092932;28;20429;-13
2022/09/23 01:56:07;;;;;;;9.60;6.88;;;10.10;77.70;;;;;;5093260;28;20056;-12
2022/09/23 01:58:45;;;;;;;11.48;7.93;;;10.20;77.10;;;;;;5093746;28;20024;-13
2022/09/23 02:01:18;;;;;;;9.70;6.97;;;10.30;77.30;;;;;;5098035;28;20044;-12
2022/09/23 02:04:11;;;;;;;8.75;6.28;;;10.30;77.10;;;;;;5096741;28;20064;-13
2022/09/23 02:06:47;;;;;;;11.00;6.95;;;10.40;76.80;;;;;;5096965;28;20111;-12
2022/09/23 02:09:23;;;;;;;11.77;8.25;;;10.40;77.00;;;;;;5096597;28;20063;-12
2022/09/23 02:11:53;;;;;;;12.25;8.65;;;10.50;76.90;;;;;;5096631;28;20020;-13
2022/09/23 02:14:27;;;;;;;11.52;8.90;;;10.50;77.30;;;;;;5096513;28;20448;-11
2022/09/23 02:16:57;;;;;;;17.77;10.77;;;10.50;78.30;;;;;;5096388;28;20475;-13
2022/09/23 02:19:26;;;;;;;13.65;9.52;;;10.60;80.40;;;;;;5096463;28;20028;-14
2022/09/23 02:22:07;;;;;;;9.82;7.78;;;10.60;80.30;;;;;;5096621;28;20111;-13
2022/09/23 02:24:37;;;;;;;14.55;10.43;;;10.70;77.90;;;;;;5096572;28;20020;-13
2022/09/23 02:27:14;;;;;;;12.63;8.95;;;10.70;77.70;;;;;;5096498;28;20032;-13
2022/09/23 02:29:48;;;;;;;11.32;8.20;;;10.80;78.00;;;;;;5096597;28;20106;-12
2022/09/23 02:32:21;;;;;;;14.95;11.68;;;10.80;77.50;;;;;;5096258;28;20431;-13
2022/09/23 02:35:10;;;;;;;10.55;7.90;;;10.90;77.70;;;;;;5096217;28;20016;-12
2022/09/23 02:38:00;;;;;;;11.32;8.38;;;11.00;77.80;;;;;;5088069;28;20077;-13
2022/09/23 02:40:26;;;;;;;10.75;8.43;;;11.10;78.00;;;;;;5066498;28;20047;-13
2022/09/23 02:43:01;;;;;;;9.85;5.97;;;11.10;78.90;;;;;;5096132;28;20032;-13
2022/09/23 02:45:27;;;;;;;7.97;5.93;;;11.10;77.60;;;;;;5095984;28;20024;-11
2022/09/23 02:48:05;;;;;;;10.13;7.15;;;11.20;77.70;;;;;;5095897;28;20111;-12
2022/09/23 02:50:33;;;;;;;11.15;8.40;;;11.20;77.50;;;;;;5096063;28;20422;-13
2022/09/23 02:53:00;;;;;;;10.20;7.18;;;11.20;77.80;;;;;;5095880;28;20085;-12
2022/09/23 02:55:31;;;;;;;12.48;9.15;;;11.30;77.80;;;;;;5095759;28;20028;-12
2022/09/23 02:58:00;;;;;;;15.23;11.23;;;11.30;77.60;;;;;;5096561;28;20046;-13
2022/09/23 03:00:56;;;;;;;14.13;10.77;;;11.30;77.90;;;;;;5095674;28;20024;-13
2022/09/23 03:03:29;;;;;;;12.15;8.15;;;11.30;77.90;;;;;;5033320;28;20067;-13
2022/09/23 03:05:58;;;;;;;8.57;6.45;;;11.30;78.40;;;;;;5033461;28;20045;-12
2022/09/23 03:08:49;;;;;;;12.75;8.82;;;11.30;78.20;;;;;;5033456;28;20104;-13
2022/09/23 03:11:16;;;;;;;15.85;9.88;;;11.30;77.80;;;;;;5032883;28;20030;-13
2022/09/23 03:13:51;;;;;;;16.52;11.75;;;11.20;77.60;;;;;;5033182;28;20040;-13
2022/09/23 03:16:42;;;;;;;16.50;11.07;;;11.20;77.60;;;;;;5032911;28;20064;-12
2022/09/23 03:19:28;;;;;;;15.00;9.23;;;11.20;77.90;;;;;;5032938;28;20612;-12
2022/09/23 03:21:59;;;;;;;13.43;9.63;;;11.10;78.20;;;;;;5032509;28;20033;-12
2022/09/23 03:24:30;;;;;;;10.43;7.82;;;11.10;78.30;;;;;;5033047;28;20149;-13
2022/09/23 03:26:59;;;;;;;8.75;6.63;;;11.00;78.20;;;;;;5032819;28;20095;-12
2022/09/23 03:29:27;;;;;;;8.23;5.93;;;11.00;78.20;;;;;;5032921;28;20026;-12
2022/09/23 03:31:55;;;;;;;8.63;6.38;;;11.00;77.80;;;;;;5032897;28;20532;-13
2022/09/23 03:34:29;;;;;;;7.32;5.07;;;10.90;77.80;;;;;;5033096;28;20038;-14
2022/09/23 03:37:02;;;;;;;7.90;5.70;;;10.90;77.70;;;;;;5032591;28;20033;-13
2022/09/23 03:39:36;;;;;;;12.05;7.95;;;10.90;77.70;;;;;;5038443;28;20115;-12
2022/09/23 03:42:17;;;;;;;11.10;8.48;;;10.90;77.90;;;;;;5093723;28;20059;-12
2022/09/23 03:44:45;;;;;;;8.70;6.40;;;10.80;78.10;;;;;;5095201;28;20031;-13
2022/09/23 03:47:14;;;;;;;8.38;5.90;;;10.70;78.20;;;;;;5094640;28;20020;-14
2022/09/23 03:49:44;;;;;;;8.65;6.00;;;10.70;78.00;;;;;;5093491;28;20031;-13
2022/09/23 03:52:10;;;;;;;7.78;5.75;;;10.60;78.10;;;;;;5095041;28;20103;-13
2022/09/23 03:54:36;;;;;;;9.05;6.35;;;10.60;78.10;;;;;;5094582;28;20024;-13
2022/09/23 03:57:02;;;;;;;9.30;7.45;;;10.60;78.10;;;;;;5094254;28;20032;-12
2022/09/23 03:59:32;;;;;;;7.45;5.43;;;10.50;78.20;;;;;;5094802;28;20055;-13
2022/09/23 04:01:58;;;;;;;10.10;6.07;;;10.50;78.20;;;;;;5094465;28;20545;-13
2022/09/23 04:04:28;;;;;;;8.95;5.93;;;10.50;78.10;;;;;;5094743;28;20032;-12
2022/09/23 04:06:57;;;;;;;9.95;6.20;;;10.40;78.10;;;;;;5094381;28;20134;-14
2022/09/23 04:09:23;;;;;;;7.88;5.93;;;10.40;78.10;;;;;;5094393;28;20024;-13
2022/09/23 04:11:50;;;;;;;9.13;6.50;;;10.40;78.20;;;;;;5094589;28;20016;-13
2022/09/23 04:14:18;;;;;;;9.00;5.65;;;10.30;78.50;;;;;;5094571;28;20028;-13
2022/09/23 04:16:45;;;;;;;7.45;5.40;;;10.30;78.30;;;;;;5093991;28;20052;-12
2022/09/23 04:19:11;;;;;;;9.13;6.40;;;10.20;78.20;;;;;;5093925;28;20483;-13
2022/09/23 04:21:38;;;;;;;13.07;9.27;;;10.20;78.40;;;;;;5093561;28;20035;-13
2022/09/23 04:24:04;;;;;;;14.82;10.55;;;10.10;78.50;;;;;;5094619;28;20376;-13
2022/09/23 04:26:32;;;;;;;12.35;9.80;;;10.00;78.30;;;;;;5094352;28;20016;-12
2022/09/23 04:28:59;;;;;;;15.23;10.27;;;10.00;78.70;;;;;;5093696;28;20173;-12
2022/09/23 04:31:25;;;;;;;14.63;10.85;;;10.00;79.30;;;;;;5094205;28;20073;-12
2022/09/23 04:33:54;;;;;;;15.10;10.93;;;10.10;79.70;;;;;;5092588;28;20110;-13
2022/09/23 04:36:20;;;;;;;12.88;9.00;;;10.10;79.60;;;;;;5093679;28;20387;-12
2022/09/23 04:38:47;;;;;;;9.77;6.97;;;10.10;79.60;;;;;;5093932;28;20111;-13
2022/09/23 04:41:14;;;;;;;10.98;6.72;;;10.10;79.40;;;;;;5093759;28;20066;-13
2022/09/23 04:43:41;;;;;;;13.07;9.30;;;10.10;79.20;;;;;;5093721;28;20028;-13
2022/09/23 04:46:09;;;;;;;15.95;9.63;;;10.10;79.40;;;;;;5093995;28;20035;-13
2022/09/23 04:48:37;;;;;;;12.70;9.20;;;10.10;79.60;;;;;;5093691;28;20106;-13
2022/09/23 04:51:07;;;;;;;13.32;9.00;;;10.00;79.90;;;;;;5093632;28;20505;-14
2022/09/23 04:53:35;;;;;;;12.43;7.60;;;9.90;79.90;;;;;;5094015;28;20482;-13
2022/09/23 04:56:04;;;;;;;11.57;5.90;;;9.90;79.70;;;;;;5093840;28;20483;-14
2022/09/23 04:58:29;;;;;;;10.23;6.75;;;9.90;79.60;;;;;;5092172;28;20032;-14
2022/09/23 05:00:56;;;;;;;11.20;8.27;;;9.90;79.90;;;;;;5093373;28;20050;-13
2022/09/23 05:03:23;;;;;;;14.55;9.63;;;9.80;80.10;;;;;;5093434;28;20028;-14
2022/09/23 05:05:49;;;;;;;11.80;7.90;;;9.70;80.10;;;;;;5093271;28;20024;-14
2022/09/23 05:08:15;;;;;;;14.00;9.88;;;9.70;80.20;;;;;;5093598;28;20054;-14
2022/09/23 05:10:41;;;;;;;17.10;11.60;;;9.70;80.40;;;;;;5093290;28;20032;-14
2022/09/23 05:13:08;;;;;;;11.35;7.82;;;9.60;80.50;;;;;;5093045;28;20486;-13
2022/09/23 05:15:34;;;;;;;10.55;7.47;;;9.60;80.70;;;;;;5093647;28;20110;-14
2022/09/23 05:18:01;;;;;;;8.57;6.25;;;9.60;80.60;;;;;;5093481;28;20123;-13
2022/09/23 05:20:27;;;;;;;11.73;6.93;;;9.60;80.40;;;;;;5093428;28;20058;-14
2022/09/23 05:22:54;;;;;;;15.40;9.40;;;9.60;80.20;;;;;;5093169;28;20047;-14
2022/09/23 05:25:24;;;;;;;17.10;11.52;;;9.70;80.50;;;;;;5093523;28;20016;-13
2022/09/23 05:27:49;;;;;;;15.85;10.65;;;9.70;80.40;;;;;;5093180;28;20024;-15
2022/09/23 05:30:15;;;;;;;12.85;9.02;;;9.80;80.70;;;;;;5093402;28;20031;-14
2022/09/23 05:32:41;;;;;;;16.02;11.05;;;9.90;80.70;;;;;;5094016;28;20040;-14
2022/09/23 05:35:07;;;;;;;20.55;12.57;;;9.90;81.70;;;;;;5097338;28;20024;-14
2022/09/23 05:37:33;;;;;;;14.07;10.77;;;10.10;81.50;;;;;;5097527;28;20384;-14
2022/09/23 05:39:59;;;;;;;16.52;11.27;;;10.20;80.70;;;;;;5097288;28;20027;-14
2022/09/23 05:42:25;;;;;;;16.17;10.85;;;10.30;80.30;;;;;;5097967;28;20024;-14
2022/09/23 05:44:51;;;;;;;17.88;11.20;;;10.50;80.10;;;;;;5097259;28;20035;-13
2022/09/23 05:47:17;;;;;;;14.10;10.18;;;10.60;79.90;;;;;;5097108;28;20035;-14
2022/09/23 05:49:43;;;;;;;16.70;11.00;;;10.90;79.80;;;;;;5097118;28;20024;-14
2022/09/23 05:52:08;;;;;;;15.63;10.90;;;11.00;79.60;;;;;;5097257;28;20046;-14
2022/09/23 05:54:35;;;;;;;12.43;8.10;;;11.20;79.80;;;;;;5097239;28;20021;-13
2022/09/23 05:57:02;;;;;;;12.70;8.05;;;11.40;79.30;;;;;;5096624;28;20070;-13
2022/09/23 05:59:28;;;;;;;19.17;9.85;;;11.50;79.00;;;;;;5097073;28;20428;-14
2022/09/23 06:01:54;;;;;;;11.85;8.00;;;11.70;78.60;;;;;;5097342;28;20031;-13
2022/09/23 06:04:20;;;;;;;12.32;8.00;;;11.80;78.50;;;;;;5097011;28;20356;-13
2022/09/23 06:06:46;;;;;;;11.00;7.75;;;11.90;78.40;;;;;;5096953;28;20486;-13
2022/09/23 06:09:13;;;;;;;9.02;7.30;;;12.00;78.30;;;;;;5096839;28;20067;-13
2022/09/23 06:11:41;;;;;;;12.80;7.55;;;12.00;78.00;;;;;;5096924;28;20055;-13
2022/09/23 06:14:12;;;;;;;11.77;8.90;;;12.20;78.00;;;;;;5096547;28;20024;-13
2022/09/23 06:16:38;;;;;;;11.98;7.78;;;12.20;77.70;;;;;;5096747;28;20127;-13
2022/09/23 06:19:04;;;;;;;12.75;8.13;;;12.30;77.60;;;;;;5096684;28;20114;-14
2022/09/23 06:21:31;;;;;;;9.10;6.70;;;12.40;77.80;;;;;;5095122;28;20032;-13
2022/09/23 06:24:01;;;;;;;9.88;7.40;;;12.50;77.50;;;;;;5096703;28;20024;-13
2022/09/23 06:26:30;;;;;;;10.60;8.13;;;12.60;77.30;;;;;;5096331;28;20032;-13
2022/09/23 06:28:56;;;;;;;9.30;6.25;;;12.70;77.20;;;;;;5096062;28;20028;-13
2022/09/23 06:31:22;;;;;;;10.93;8.35;;;12.80;77.00;;;;;;5096300;28;20082;-13
2022/09/23 06:33:48;;;;;;;11.52;6.85;;;12.90;77.00;;;;;;5096172;28;20506;-13
2022/09/23 06:36:14;;;;;;;12.15;9.68;;;13.00;76.50;;;;;;5095364;28;20020;-13
2022/09/23 06:38:47;;;;;;;9.63;7.38;;;13.10;76.40;;;;;;5096304;28;20563;-13
2022/09/23 06:41:13;;;;;;;10.45;7.57;;;13.20;76.30;;;;;;5097024;28;20024;-13
2022/09/23 06:43:39;;;;;;;7.70;6.40;;;13.40;76.20;;;;;;5096284;28;20107;-13
2022/09/23 06:46:06;;;;;;;9.18;6.50;;;13.70;75.80;;;;;;5095540;28;20440;-13
2022/09/23 06:48:34;;;;;;;8.40;6.13;;;14.00;75.40;;;;;;5094634;28;20031;-13
2022/09/23 06:51:02;;;;;;;9.57;5.75;;;14.30;75.00;;;;;;5095605;28;20104;-14
2022/09/23 06:53:32;;;;;;;14.20;8.50;;;14.60;74.50;;;;;;5095817;28;20555;-13
2022/09/23 06:56:04;;;;;;;7.05;5.40;;;14.90;73.40;;;;;;5095978;28;20013;-13
2022/09/23 06:58:32;;;;;;;9.27;7.15;;;15.10;72.90;;;;;;5095707;28;20032;-12
2022/09/23 07:01:06;;;;;;;7.57;5.20;;;15.40;72.40;;;;;;5095530;28;20107;-13
2022/09/23 07:03:32;;;;;;;10.75;7.25;;;15.60;71.90;;;;;;5096048;28;20024;-14
2022/09/23 07:05:59;;;;;;;8.57;6.15;;;15.80;71.40;;;;;;5095775;28;20360;-14
2022/09/23 07:08:27;;;;;;;8.27;5.93;;;16.00;69.50;;;;;;5095586;28;20043;-13
2022/09/23 07:10:58;;;;;;;7.88;4.75;;;16.10;68.40;;;;;;5095439;28;20028;-12
2022/09/23 07:13:25;;;;;;;8.60;5.65;;;16.20;68.40;;;;;;5096042;28;20024;-14
2022/09/23 07:15:57;;;;;;;8.57;5.60;;;16.40;67.60;;;;;;5095181;28;20123;-14
2022/09/23 07:18:24;;;;;;;9.90;6.10;;;16.50;65.60;;;;;;5096223;28;20024;-14
2022/09/23 07:24:12;;;;;;;7.45;4.43;;;16.60;65.40;;;;;;5095643;28;20565;-12
2022/09/23 07:26:38;;;;;;;7.50;4.35;;;16.80;65.80;;;;;;5095228;28;20020;-13
2022/09/23 07:29:04;;;;;;;7.90;5.20;;;16.90;65.70;;;;;;5095213;28;20046;-13
2022/09/23 07:31:34;;;;;;;6.60;4.50;;;17.10;65.60;;;;;;5095086;28;20387;-13
2022/09/23 07:34:01;;;;;;;8.40;5.38;;;17.20;65.00;;;;;;5095669;28;20048;-13
2022/09/23 07:36:30;;;;;;;7.13;5.00;;;17.30;64.90;;;;;;5095130;28;20036;-13
2022/09/23 07:39:02;;;;;;;7.45;5.03;;;17.40;64.70;;;;;;5095034;28;20066;-14
2022/09/23 07:41:29;;;;;;;7.13;4.32;;;17.50;63.80;;;;;;5095577;28;20053;-13
2022/09/23 07:43:59;;;;;;;6.57;4.60;;;17.70;63.50;;;;;;5095192;28;20034;-13
2022/09/23 07:46:34;;;;;;;7.68;4.80;;;17.80;62.30;;;;;;5094813;28;20069;-13
2022/09/23 07:49:02;;;;;;;7.35;4.60;;;17.90;62.70;;;;;;5094541;28;20024;-13
2022/09/23 07:51:31;;;;;;;5.97;4.20;;;18.00;62.10;;;;;;5094606;28;20038;-13
2022/09/23 07:53:58;;;;;;;5.90;3.95;;;18.20;62.00;;;;;;5094634;28;20060;-14
2022/09/23 07:56:27;;;;;;;5.20;4.05;;;18.40;62.00;;;;;;5093784;28;20425;-14
2022/09/23 07:58:59;;;;;;;5.47;3.80;;;18.60;60.90;;;;;;5094451;28;20429;-14
2022/09/23 08:01:28;;;;;;;8.60;5.18;;;18.80;59.70;;;;;;5094580;28;20023;-13
2022/09/23 08:03:55;;;;;;;4.15;3.75;;;19.10;58.10;;;;;;5094776;28;20020;-14
2022/09/23 08:06:22;;;;;;;6.57;4.50;;;19.40;57.50;;;;;;5094619;28;20016;-11
2022/09/23 08:08:49;;;;;;;6.25;3.80;;;19.80;57.40;;;;;;5094482;28;20043;-11
2022/09/23 08:11:15;;;;;;;6.90;4.10;;;20.10;57.10;;;;;;5094677;28;20024;-12
2022/09/23 08:13:41;;;;;;;4.50;3.60;;;20.10;54.70;;;;;;5094516;28;20492;-12
2022/09/23 08:16:08;;;;;;;4.82;3.70;;;20.00;56.10;;;;;;5094214;28;20144;-13
2022/09/23 08:18:34;;;;;;;6.03;3.70;;;19.90;55.80;;;;;;5094755;28;20028;-12
2022/09/23 08:21:00;;;;;;;5.13;3.30;;;19.80;56.30;;;;;;5094139;28;20035;-12
2022/09/23 08:23:26;;;;;;;5.82;3.20;;;19.70;56.50;;;;;;5093997;28;20035;-12
2022/09/23 08:25:58;;;;;;;5.82;2.92;;;19.70;56.20;;;;;;5094287;28;20106;-12
2022/09/23 08:28:25;;;;;;;5.55;3.25;;;19.80;55.50;;;;;;5094127;28;20024;-12
2022/09/23 08:30:51;;;;;;;3.20;2.60;;;19.90;54.40;;;;;;5093698;28;20031;-12
2022/09/23 08:33:17;;;;;;;4.53;3.22;;;20.10;53.90;;;;;;5094281;28;20024;-13
2022/09/23 08:35:43;;;;;;;5.07;3.08;;;20.40;53.70;;;;;;5094129;28;20023;-12
2022/09/23 08:38:09;;;;;;;6.25;3.50;;;20.70;52.60;;;;;;5094079;28;20063;-12
2022/09/23 08:40:39;;;;;;;5.22;2.90;;;20.90;52.10;;;;;;5092607;28;20498;-12
2022/09/23 08:43:24;;;;;;;6.20;2.78;;;21.30;51.80;;;;;;5093553;28;20024;-13
2022/09/23 08:45:52;;;;;;;4.78;2.63;;;21.60;50.90;;;;;;5094116;28;20042;-12
2022/09/23 08:48:29;;;;;;;7.07;3.42;;;21.90;50.80;;;;;;5093656;28;20027;-12
2022/09/23 08:51:06;;;;;;;3.92;3.00;;;22.30;48.70;;;;;;5093709;28;20024;-12
2022/09/23 08:53:34;;;;;;;4.15;2.92;;;22.40;49.50;;;;;;5094119;28;20494;-13
2022/09/23 08:56:14;;;;;;;2.97;2.70;;;22.70;49.60;;;;;;5093919;28;20472;-13
2022/09/23 08:58:58;;;;;;;4.35;3.08;;;23.00;48.00;;;;;;5093491;28;20028;-12
2022/09/23 09:02:04;;;;;;;4.38;3.15;;;23.30;46.50;;;;;;5093340;28;20071;-12
2022/09/23 09:04:35;;;;;;;4.15;2.25;;;23.60;44.90;;;;;;5053431;28;20043;-11
2022/09/23 09:07:07;;;;;;;5.60;3.00;;;23.80;45.80;;;;;;5093056;28;20028;-12
2022/09/23 09:10:01;;;;;;;6.22;3.03;;;23.90;43.90;;;;;;5093164;28;20032;-12
2022/09/23 09:12:36;;;;;;;;;;;24.10;43.10;;;;;;5094105;28;20028;-11
2022/09/23 09:15:11;;;;;;;3.63;2.60;;;24.30;43.70;;;;;;5093113;28;20416;-12
2022/09/23 09:18:23;;;;;;;5.57;3.20;;;24.50;44.80;;;;;;5093151;28;20044;-12
2022/09/23 09:21:08;;;;;;;5.20;2.97;;;24.50;41.70;;;;;;5011070;28;20505;-11
2022/09/23 09:23:54;;;;;;;3.90;3.25;;;24.50;43.10;;;;;;5011421;28;20061;-11
2022/09/23 09:26:33;;;;;;;3.60;2.80;;;24.60;42.30;;;;;;5011277;28;20029;-14
2022/09/23 09:29:09;;;;;;;5.75;3.13;;;24.60;41.30;;;;;;5011142;28;20026;-13
2022/09/23 09:31:42;;;;;;;6.90;3.70;;;24.80;43.80;;;;;;4994889;28;20040;-13
2022/09/23 09:34:28;;;;;;;4.32;3.20;;;25.00;42.80;;;;;;5011318;28;20026;-13
2022/09/23 09:37:17;;;;;;;4.65;3.40;;;25.00;42.90;;;;;;5010855;28;20034;-13
2022/09/23 09:39:43;;;;;;;5.78;4.07;;;25.20;41.70;;;;;;5011180;28;20501;-13
2022/09/23 09:42:16;;;;;;;7.10;3.70;;;25.30;41.40;;;;;;5011140;28;20087;-13
2022/09/23 09:44:47;;;;;;;;;;;25.00;41.70;;;;;;5011800;28;20042;-12
2022/09/23 09:47:37;;;;;;;5.00;3.17;;;24.70;40.80;;;;;;5011088;28;19906;-12
2022/09/23 09:50:12;;;;;;;3.28;2.95;;;24.60;41.80;;;;;;5011131;28;20157;-12
2022/09/23 09:52:42;;;;;;;3.10;2.80;;;24.60;41.80;;;;;;5011024;28;20022;-13
2022/09/23 09:55:21;;;;;;;3.72;3.25;;;24.80;40.90;;;;;;5010637;28;20034;-13
2022/09/23 09:57:53;;;;;;;4.57;2.92;;;25.10;40.30;;;;;;5069204;28;20071;-12
2022/09/23 10:00:25;;;;;;;3.87;3.10;;;25.40;40.50;;;;;;5093035;28;20114;-12
2022/09/23 10:02:59;;;;;;;2.97;2.65;;;25.80;37.90;;;;;;5092706;28;20421;-12
2022/09/23 10:05:46;;;;;;;3.17;2.78;;;26.00;36.10;;;;;;5092715;28;20074;-13
2022/09/23 10:08:24;;;;;;;3.55;2.75;;;26.20;36.00;;;;;;5093156;28;20136;-12
2022/09/23 10:10:58;;;;;;;3.03;2.72;;;26.50;35.60;;;;;;5092930;28;20123;-12
2022/09/23 10:13:26;;;;;;;2.80;2.60;;;26.70;35.70;;;;;;5093090;28;20028;-12
2022/09/23 10:15:53;;;;;;;3.42;3.00;;;26.50;34.40;;;;;;5092764;28;20079;-12
2022/09/23 10:18:25;;;;;;;2.80;2.55;;;26.10;35.40;;;;;;5092844;28;20027;-12
2022/09/23 10:20:51;;;;;;;2.70;2.50;;;25.90;36.60;;;;;;5095207;28;20105;-13
2022/09/23 10:23:22;;;;;;;4.22;3.55;;;25.90;37.40;;;;;;5096630;28;20479;-13
2022/09/23 10:26:04;;;;;;;3.30;3.00;;;26.10;37.00;;;;;;5096508;28;20028;-13
2022/09/23 10:28:45;;;;;;;2.63;2.35;;;26.10;35.40;;;;;;5096386;28;20024;-13
2022/09/23 10:31:31;;;;;;;8.60;3.30;;;25.80;36.20;;;;;;5096172;28;20112;-12
2022/09/23 10:34:20;;;;;;;4.43;2.78;;;25.50;36.60;;;;;;5096348;28;20016;-12
2022/09/23 10:37:08;;;;;;;5.93;2.90;;;25.40;36.90;;;;;;5083601;28;20032;-12
2022/09/23 10:48:34;;;;;;;3.20;2.75;;;26.00;35.80;;;;;;5096640;28;20543;-13
2022/09/23 10:51:06;;;;;;;4.03;2.72;;;25.90;36.20;;;;;;5095954;28;20483;-12
2022/09/23 10:53:52;;;;;;;3.25;2.95;;;26.30;35.90;;;;;;5096250;28;20025;-13
2022/09/23 10:56:18;;;;;;;4.18;3.03;;;26.80;35.00;;;;;;5096220;28;20149;-13
2022/09/23 10:59:32;;;;;;;6.13;3.50;;;26.90;34.40;;;;;;5096007;28;20115;-13
2022/09/23 11:02:03;;;;;;;;;;;26.70;34.50;;;;;;5014903;28;20136;-12
2022/09/23 11:04:54;;;;;;;2.08;1.80;;;26.50;35.10;;;;;;5013660;28;19905;-12
2022/09/23 11:07:25;;;;;;;3.92;2.20;;;26.70;35.10;;;;;;5013617;28;20041;-13
2022/09/23 11:10:08;;;;;;;2.47;2.05;;;27.20;33.90;;;;;;5013653;28;20029;-12
2022/09/23 11:12:48;;;;;;;2.78;2.53;;;27.80;32.50;;;;;;5013843;28;20560;-13
2022/09/23 11:15:41;;;;;;;3.88;2.60;;;28.10;32.60;;;;;;5013541;28;20113;-12
2022/09/23 11:18:37;;;;;;;5.25;2.53;;;28.30;31.60;;;;;;5013417;28;20038;-12
2022/09/23 11:21:30;;;;;;;4.00;2.75;;;28.00;32.10;;;;;;5013109;28;20026;-12
2022/09/23 11:24:13;;;;;;;4.05;2.90;;;27.60;31.40;;;;;;4936517;29;20222;-13
2022/09/23 11:27:09;;;;;;;3.33;2.40;;;26.90;32.30;;;;;;4935871;29;20074;-12
2022/09/23 11:30:06;;;;;;;4.10;2.38;;;26.60;32.60;;;;;;4935863;29;20528;-12
2022/09/23 11:32:47;;;;;;;3.33;2.00;;;26.50;33.30;;;;;;4935965;29;20044;-12
2022/09/23 11:35:20;;;;;;;3.10;2.10;;;26.60;32.80;;;;;;4935745;29;20099;-11
2022/09/23 11:37:55;;;;;;;3.67;2.80;;;26.80;31.70;;;;;;4959374;28;20038;-12
2022/09/23 11:40:33;;;;;;;4.10;2.17;;;26.90;31.70;;;;;;5032814;28;20111;-12
2022/09/23 11:43:32;;;;;;;4.18;2.58;;;27.00;32.00;;;;;;5032600;28;20029;-11
2022/09/23 11:46:22;;;;;;;3.90;2.95;;;27.30;32.20;;;;;;5032585;28;20033;-11
2022/09/23 11:48:56;;;;;;;4.22;3.00;;;27.70;30.80;;;;;;5032437;28;20045;-12
2022/09/23 11:51:33;;;;;;;3.65;2.92;;;27.90;31.20;;;;;;5032524;28;20463;-12
2022/09/23 11:54:33;;;;;;;3.30;2.40;;;27.80;31.20;;;;;;5032765;28;20069;-13
2022/09/23 11:57:03;;;;;;;5.88;4.20;;;28.00;31.10;;;;;;4934841;29;20044;-12
2022/09/23 11:59:40;;;;;;;4.82;3.15;;;28.10;30.60;;;;;;4935150;29;20503;-12
2022/09/23 12:02:35;;;;;;;3.80;2.50;;;27.90;31.30;;;;;;4993227;28;20034;-12
2022/09/23 12:05:23;;;;;;;3.78;2.92;;;27.90;31.50;;;;;;4992877;28;20150;-11
2022/09/23 12:08:24;;;;;;;3.85;2.90;;;28.20;30.60;;;;;;4992837;28;20057;-12
2022/09/23 12:11:19;;;;;;;4.65;2.42;;;28.70;30.50;;;;;;4992731;28;20038;-12
2022/09/23 12:14:08;;;;;;;4.05;3.00;;;29.40;30.00;;;;;;4992863;28;20470;-12
2022/09/23 12:16:56;;;;;;;5.05;3.63;;;29.90;29.40;;;;;;4992916;28;20064;-12
2022/09/23 12:19:41;;;;;;;4.80;3.25;;;29.90;28.70;;;;;;4992688;28;20485;-13
2022/09/23 12:22:38;;;;;;;4.80;3.50;;;29.80;28.80;;;;;;4992606;28;20130;-13
2022/09/23 12:25:36;;;;;;;4.13;2.60;;;29.40;28.50;;;;;;4992412;28;20106;-13
2022/09/23 12:28:13;;;;;;;3.10;2.50;;;29.30;29.80;;;;;;4992678;28;20030;-12
2022/09/23 12:30:41;;;;;;;4.28;3.10;;;29.60;29.40;;;;;;4992457;28;20019;-13
2022/09/23 12:33:23;;;;;;;5.80;3.55;;;29.60;28.60;;;;;;5015295;28;20441;-13
2022/09/23 12:35:52;;;;;;;3.13;2.65;;;29.40;29.00;;;;;;5094672;28;20102;-12
2022/09/23 12:38:24;;;;;;;2.78;2.33;;;29.40;29.60;;;;;;5094101;28;20081;-13
2022/09/23 12:41:23;;;;;;;3.38;2.88;;;29.50;29.10;;;;;;5093702;28;20047;-13
2022/09/23 12:43:55;;;;;;;3.63;3.00;;;29.80;28.40;;;;;;5070972;28;20194;-12
2022/09/23 12:46:24;;;;;;;7.82;3.03;;;29.90;28.80;;;;;;5071831;28;20031;-12
2022/09/23 12:48:59;;;;;;;3.40;2.13;;;29.90;28.30;;;;;;5071105;28;20071;-13
2022/09/23 12:51:35;;;;;;;2.92;2.70;;;29.90;28.10;;;;;;5071334;28;20028;-13
2022/09/23 12:54:04;;;;;;;3.20;2.90;;;30.00;28.00;;;;;;5071425;28;20028;-12
2022/09/23 12:56:35;;;;;;;4.57;2.88;;;30.00;27.90;;;;;;5071217;28;20038;-13
2022/09/23 12:59:25;;;;;;;2.95;2.40;;;29.60;27.90;;;;;;5071176;28;20543;-12
2022/09/23 13:01:52;;;;;;;3.20;2.25;;;29.30;28.40;;;;;;5071270;28;20075;-12
2022/09/23 13:07:49;;;;;;;5.00;3.08;;;29.60;28.30;;;;;;5071180;28;20028;-13
2022/09/23 13:10:26;;;;;;;3.28;2.28;;;29.30;28.10;;;;;;5071444;28;20064;-13
2022/09/23 13:12:54;;;;;;;4.80;2.25;;;29.00;29.10;;;;;;5070955;28;20017;-12
2022/09/23 13:15:33;;;;;;;3.55;2.95;;;29.30;29.10;;;;;;5089601;28;20514;-13
2022/09/23 13:18:18;;;;;;;3.00;2.40;;;29.60;28.30;;;;;;5093564;28;20036;-13
2022/09/23 13:20:45;;;;;;;2.53;2.33;;;29.50;27.90;;;;;;5093292;28;20052;-14
2022/09/23 13:23:26;;;;;;;2.50;2.30;;;29.50;28.40;;;;;;5093230;28;20028;-14
2022/09/23 13:25:56;;;;;;;2.30;1.90;;;29.90;27.60;;;;;;5093509;28;20024;-12
2022/09/23 13:28:25;;;;;;;3.50;2.50;;;30.20;28.40;;;;;;5093208;28;20043;-12
2022/09/23 13:30:51;;;;;;;3.60;2.50;;;30.50;27.40;;;;;;5093235;28;20032;-13
2022/09/23 13:33:44;;;;;;;2.30;2.10;;;30.90;27.30;;;;;;5093350;28;20035;-13